Time;durP1;ratioP1;P1;durP2;ratioP2;P2;SDS_P1;SDS_P2;PMS_P1;PMS_P2;Temp;Humidity;BMP_temperature;BMP_pressure;BME280_temperature;BME280_humidity;BME280_pressure;Samples;Min_cycle;Max_cycle;Signal;HPM_P1;HPM_P2
2022/01/19 00:00:12;;;;;;;23.40;8.52;;;;;;;1.18;56.67;101628.62;7738310;32;39571;-74
2022/01/19 00:04:28;;;;;;;21.70;9.30;;;;;;;1.52;55.08;101624.97;7738235;32;40774;-73
2022/01/19 00:08:44;;;;;;;20.35;8.27;;;;;;;1.35;55.33;101619.59;7738304;32;38575;-72
2022/01/19 00:13:01;;;;;;;20.65;9.25;;;;;;;1.58;54.19;101616.25;7738648;32;36698;-74
2022/01/19 00:17:17;;;;;;;22.42;9.65;;;;;;;1.71;53.99;101621.97;7738245;32;39300;-74
2022/01/19 00:21:33;;;;;;;24.80;9.10;;;;;;;1.54;54.45;101623.81;7738118;32;40188;-73
2022/01/19 00:25:51;;;;;;;23.58;9.35;;;;;;;1.42;55.28;101628.66;7737882;32;38029;-73
2022/01/19 00:30:08;;;;;;;22.48;9.80;;;;;;;1.46;54.92;101627.31;7738051;32;37129;-74
2022/01/19 00:34:24;;;;;;;19.12;8.57;;;;;;;1.77;53.44;101648.16;7738071;32;39992;-72
2022/01/19 00:38:40;;;;;;;18.42;8.93;;;;;;;1.67;54.86;101634.03;7737971;32;40756;-73
2022/01/19 00:42:56;;;;;;;21.30;8.68;;;;;;;1.45;55.32;101643.59;7737741;32;38656;-73
2022/01/19 00:47:15;;;;;;;18.00;8.38;;;;;;;1.61;54.49;101638.25;7737859;32;37401;-73
2022/01/19 00:51:31;;;;;;;21.12;9.07;;;;;;;1.70;54.37;101641.78;7737882;32;38822;-73
2022/01/19 00:55:47;;;;;;;18.67;8.68;;;;;;;1.73;53.82;101646.00;7737690;32;39650;-73
2022/01/19 01:00:06;;;;;;;22.17;8.85;;;;;;;1.81;53.88;101644.16;7737484;32;37838;-73
2022/01/19 01:04:22;;;;;;;19.58;9.55;;;;;;;1.82;53.56;101644.97;7737488;32;37373;-72
2022/01/19 01:08:38;;;;;;;23.58;9.32;;;;;;;1.65;54.19;101633.37;7737504;32;39366;-73
2022/01/19 01:13:05;;;;;;;20.25;9.48;;;;;;;1.64;54.04;101627.16;7737396;32;39900;-74
2022/01/19 01:21:56;;;;;;;23.52;9.73;;;;;;;1.64;53.73;101612.91;7737178;32;37134;-72
2022/01/19 01:26:12;;;;;;;26.30;10.05;;;;;;;1.39;53.98;101601.28;7737048;32;39318;-73
2022/01/19 01:30:29;;;;;;;19.37;9.25;;;;;;;1.19;54.54;101600.75;7736976;32;40066;-73
2022/01/19 01:34:45;;;;;;;16.25;9.55;;;;;;;1.10;54.60;101602.56;7717140;32;216675;-73
2022/01/19 01:39:02;;;;;;;29.58;9.65;;;;;;;0.80;55.37;101587.91;7740157;32;37342;-71
2022/01/19 01:43:18;;;;;;;23.65;10.35;;;;;;;0.86;55.01;101568.44;7740101;32;39332;-74
2022/01/19 01:47:40;;;;;;;17.10;9.82;;;;;;;0.75;55.64;101566.91;7739941;32;41228;-73
2022/01/19 01:56:31;;;;;;;21.33;9.98;;;;;;;0.69;55.39;101573.78;7740215;32;37047;-74
2022/01/19 02:00:47;;;;;;;24.30;9.38;;;;;;;0.65;55.56;101577.78;7739625;32;40064;-72
2022/01/19 02:05:06;;;;;;;20.67;9.82;;;;;;;0.57;55.87;101569.72;7739791;32;39934;-73
2022/01/19 02:09:25;;;;;;;19.45;10.00;;;;;;;0.53;56.20;101557.62;7739641;32;37865;-73
2022/01/19 02:22:51;;;;;;;22.42;9.65;;;;;;;0.52;56.14;101550.59;7739493;32;40735;-73
2022/01/19 02:28:55;;;;;;;20.35;9.38;;;;;;;0.31;56.51;101551.84;7739473;32;38501;-73
2022/01/19 02:36:30;;;;;;;17.30;9.15;;;;;;;0.27;56.58;101547.78;7739237;32;37152;-73
2022/01/19 02:40:38;;;;;;;17.33;8.98;;;;;;;0.34;56.58;101553.34;7739424;32;39921;-73
2022/01/19 02:49:16;;;;;;;19.45;9.32;;;;;;;0.08;57.18;101559.59;7739315;32;37713;-74
2022/01/19 02:53:34;;;;;;;18.70;8.48;;;;;;;0.05;57.11;101559.91;7739215;32;40195;-72
2022/01/19 02:57:50;;;;;;;18.02;8.90;;;;;;;0.44;56.08;101527.22;7739019;32;40773;-73
2022/01/19 03:11:20;;;;;;;20.62;9.27;;;;;;;0.12;55.95;101506.47;7739091;32;39330;-74
2022/01/19 03:15:36;;;;;;;24.35;9.80;;;;;;;0.10;55.72;101495.06;7738958;32;40614;-73
2022/01/19 03:19:52;;;;;;;16.37;8.73;;;;;;;0.08;55.50;101489.03;7738773;32;38639;-74
2022/01/19 03:24:11;;;;;;;18.75;8.73;;;;;;;0.23;54.94;101471.31;7738901;32;36957;-73
2022/01/19 03:28:27;;;;;;;21.00;8.40;;;;;;;0.37;54.42;101489.47;7738957;32;40908;-74
2022/01/19 03:32:43;;;;;;;26.95;9.30;;;;;;;0.35;54.47;101490.66;7738711;32;40723;-74
2022/01/19 03:37:00;;;;;;;21.08;9.23;;;;;;;0.54;54.74;101489.53;7724782;32;37937;-73
2022/01/19 03:41:16;;;;;;;16.98;8.63;;;;;;;0.39;55.31;101485.78;7738623;32;38067;-72
2022/01/19 03:45:33;;;;;;;22.85;9.20;;;;;;;0.32;55.49;101491.81;7738870;32;39433;-72
2022/01/19 03:49:49;;;;;;;15.38;8.77;;;;;;;0.43;55.32;101481.78;7738504;32;40813;-73
2022/01/19 03:54:06;;;;;;;43.15;17.70;;;;;;;0.26;56.24;101478.19;7738402;32;38705;-71
2022/01/19 03:58:22;;;;;;;25.62;10.95;;;;;;;0.29;55.56;101475.19;7737820;32;37467;-72
2022/01/19 04:02:38;;;;;;;18.67;8.65;;;;;;;0.24;55.45;101470.31;7738083;32;39015;-73
2022/01/19 04:06:59;;;;;;;17.27;8.30;;;;;;;0.35;54.85;101486.12;7738449;32;40008;-73
2022/01/19 04:11:18;;;;;;;17.55;8.80;;;;;;;0.44;54.60;101488.84;7738341;32;38042;-73
2022/01/19 04:15:36;;;;;;;23.40;9.18;;;;;;;0.17;55.31;101488.06;7738346;32;37072;-73
2022/01/19 04:19:52;;;;;;;18.08;9.80;;;;;;;0.30;54.68;101495.66;7724300;32;38787;-73
2022/01/19 04:24:09;;;;;;;20.02;9.48;;;;;;;0.35;54.65;101502.22;7738222;32;39774;-73
2022/01/19 04:28:25;;;;;;;24.27;9.98;;;;;;;0.26;55.17;101500.50;7724186;32;38504;-73
2022/01/19 04:33:08;;;;;;;20.52;8.63;;;;;;;-0.05;55.52;101494.84;7738051;32;36995;-73
2022/01/19 05:08:48;;;;;;;32.75;13.98;;;;;;;-0.41;56.28;101463.66;7736603;32;37142;-73
2022/01/19 05:17:40;;;;;;;20.85;9.07;;;;;;;-0.56;56.88;101462.56;7737210;32;39819;-71
2022/01/19 05:21:56;;;;;;;24.23;10.95;;;;;;;-0.71;57.45;101461.44;7737045;32;38796;-72
2022/01/19 05:26:12;;;;;;;30.05;10.25;;;;;;;-0.81;57.71;101461.53;7737117;32;37183;-73
2022/01/19 05:30:28;;;;;;;19.52;10.93;;;;;;;-0.54;56.92;101457.88;7736970;32;40123;-72
2022/01/19 05:34:45;;;;;;;22.85;9.70;;;;;;;-0.61;55.84;101457.66;7736907;32;40952;-73
2022/01/19 05:39:05;;;;;;;23.45;10.25;;;;;;;-0.75;56.69;101460.94;7736773;32;38478;-74
2022/01/19 05:43:21;;;;;;;23.05;10.30;;;;;;;-0.61;55.78;101443.44;7736623;32;37181;-73
2022/01/19 05:47:37;;;;;;;19.35;9.07;;;;;;;-0.82;56.01;101455.34;7736564;32;39412;-72
2022/01/19 05:51:54;;;;;;;24.70;9.15;;;;;;;-0.77;55.78;101457.56;7736461;32;40887;-71
2022/01/19 05:56:10;;;;;;;18.33;8.23;;;;;;;-0.81;55.67;101457.03;7736487;32;37947;-72
2022/01/19 06:00:26;;;;;;;26.60;9.52;;;;;;;-0.64;54.93;101451.78;7736229;32;37084;-72
2022/01/19 06:04:42;;;;;;;20.40;9.77;;;;;;;-0.85;56.37;101452.97;7736120;32;39318;-74
2022/01/19 06:09:01;;;;;;;19.15;7.85;;;;;;;-0.77;55.74;101453.03;7736026;32;40883;-73
2022/01/19 06:13:18;;;;;;;19.90;8.85;;;;;;;-0.58;54.38;101449.31;7735969;32;38215;-72
2022/01/19 06:17:34;;;;;;;21.20;8.63;;;;;;;-0.72;54.12;101451.75;7735896;32;37166;-71
2022/01/19 06:21:50;;;;;;;17.02;8.70;;;;;;;-0.82;55.02;101443.81;7737615;32;39220;-72
2022/01/19 06:26:06;;;;;;;31.20;13.77;;;;;;;-0.97;55.26;101451.56;7739511;32;40762;-72
2022/01/19 06:30:23;;;;;;;27.95;12.73;;;;;;;-1.15;56.43;101444.38;7739307;32;38647;-72
2022/01/19 06:34:39;;;;;;;34.72;15.57;;;;;;;-0.88;55.74;101445.28;7739348;32;37984;-73
2022/01/19 06:38:55;;;;;;;24.50;10.32;;;;;;;-1.00;55.53;101436.66;7739377;32;39005;-73
2022/01/19 06:43:11;;;;;;;18.70;9.30;;;;;;;-0.78;54.81;101439.81;7725558;32;39637;-70
2022/01/19 06:47:27;;;;;;;19.15;9.82;;;;;;;-0.85;54.69;101431.56;7739191;32;38045;-70
2022/01/19 06:51:43;;;;;;;19.35;8.77;;;;;;;-0.77;54.42;101426.25;7739331;32;37113;-70
2022/01/19 06:55:59;;;;;;;20.10;10.13;;;;;;;-0.96;54.47;101431.81;7739243;32;39475;-70
2022/01/19 07:00:16;;;;;;;19.12;9.80;;;;;;;-1.16;55.25;101437.34;7738972;32;40823;-71
2022/01/19 07:04:32;;;;;;;26.65;10.90;;;;;;;-1.36;56.22;101441.19;7738888;32;38813;-71
2022/01/19 07:08:49;;;;;;;21.17;9.45;;;;;;;-1.25;55.68;101443.63;7738946;32;37008;-70
2022/01/19 07:13:06;;;;;;;22.80;9.25;;;;;;;-1.18;56.10;101433.97;7739060;32;39175;-73
2022/01/19 07:17:22;;;;;;;20.85;9.30;;;;;;;-1.16;56.75;101426.63;7738829;32;40898;-72
2022/01/19 07:21:39;;;;;;;26.98;9.70;;;;;;;-0.86;57.21;101418.31;7738729;32;38018;-74
2022/01/19 07:25:55;;;;;;;19.27;10.10;;;;;;;-1.12;57.99;101420.97;7738894;32;36809;-71
2022/01/19 07:30:12;;;;;;;18.92;9.43;;;;;;;-0.87;57.93;101408.62;7738828;32;40097;-69
2022/01/19 07:34:29;;;;;;;18.00;9.48;;;;;;;-0.56;57.23;101408.97;7738049;32;40177;-71
2022/01/19 07:38:45;;;;;;;19.50;10.35;;;;;;;-0.59;57.38;101403.94;7738685;32;37509;-74
2022/01/19 07:43:01;;;;;;;18.15;8.60;;;;;;;-0.57;57.25;101410.81;7738556;32;36907;-74
2022/01/19 07:47:17;;;;;;;18.33;9.88;;;;;;;-0.25;59.00;101408.47;7738666;32;39819;-73
2022/01/19 07:51:33;;;;;;;29.23;11.55;;;;;;;-0.22;57.13;101411.66;7738676;32;40211;-74
2022/01/19 07:55:50;;;;;;;21.92;9.93;;;;;;;-0.12;57.18;101403.50;7738372;32;37964;-72
2022/01/19 08:00:07;;;;;;;28.87;11.18;;;;;;;-0.57;58.31;101413.50;7738480;32;38138;-74
2022/01/19 08:04:23;;;;;;;19.60;10.45;;;;;;;-0.26;57.16;101414.81;7738237;32;39013;-74
2022/01/19 08:08:39;;;;;;;24.48;13.13;;;;;;;-0.05;57.43;101411.75;7738329;32;39832;-74
2022/01/19 08:13:00;;;;;;;30.25;16.65;;;;;;;0.33;56.85;101404.13;7738138;32;38611;-73
2022/01/19 08:17:16;;;;;;;60.00;28.20;;;;;;;0.59;55.93;101395.94;7738287;32;37412;-72
2022/01/19 08:21:32;;;;;;;70.25;33.17;;;;;;;0.37;56.27;101402.78;7712126;32;39126;-73
2022/01/19 08:25:48;;;;;;;51.50;25.90;;;;;;;0.69;55.82;101391.25;7685111;32;39713;-73
2022/01/19 08:30:07;;;;;;;50.53;25.90;;;;;;;0.68;55.85;101388.72;7684676;32;37849;-73
2022/01/19 08:34:23;;;;;;;40.97;22.02;;;;;;;0.88;55.60;101378.47;7684665;32;37493;-74
2022/01/19 08:38:41;;;;;;;47.83;27.13;;;;;;;0.91;56.24;101383.50;7682713;32;40048;-73
2022/01/19 08:42:58;;;;;;;76.72;34.28;;;;;;;0.74;57.93;101382.66;7699698;32;39996;-73
2022/01/19 08:47:14;;;;;;;49.53;25.70;;;;;;;1.61;55.27;101376.63;7703859;32;37877;-72
2022/01/19 08:51:41;;;;;;;40.95;18.55;;;;;;;1.13;55.69;101374.72;7693865;32;37644;-73
2022/01/19 08:55:57;;;;;;;33.92;15.48;;;;;;;0.96;57.00;101375.78;7703134;32;39110;-74
2022/01/19 09:00:15;;;;;;;30.85;15.27;;;;;;;1.76;55.18;101356.06;7709991;32;40508;-72
2022/01/19 09:04:32;;;;;;;34.97;15.95;;;;;;;2.07;54.71;101352.53;7734597;32;38176;-72
2022/01/19 09:08:48;;;;;;;32.55;17.55;;;;;;;2.75;53.22;101341.94;7736652;32;37994;-75
2022/01/19 09:13:04;;;;;;;37.92;16.42;;;;;;;2.61;52.83;101352.47;7736631;32;39367;-73
2022/01/19 09:17:20;;;;;;;39.40;19.92;;;;;;;2.33;53.51;101351.34;7736284;32;39851;-74
2022/01/19 09:21:36;;;;;;;43.53;18.95;;;;;;;2.93;52.15;101344.28;7736088;32;38187;-73
2022/01/19 09:25:52;;;;;;;32.72;16.05;;;;;;;2.75;52.25;101347.31;7736504;32;38254;-74
2022/01/19 09:30:14;;;;;;;27.90;12.80;;;;;;;2.86;51.79;101333.41;7736429;32;40140;-74
2022/01/19 09:34:30;;;;;;;26.17;11.63;;;;;;;3.33;51.34;101324.16;7735722;32;40775;-73
2022/01/19 09:38:46;;;;;;;23.27;11.18;;;;;;;3.46;50.11;101315.41;7736710;32;38617;-74
2022/01/19 09:43:07;;;;;;;29.73;15.10;;;;;;;3.09;50.27;101300.19;7736663;32;37121;-73
2022/01/19 09:47:23;;;;;;;35.60;16.20;;;;;;;2.98;52.33;101296.06;7736747;32;39425;-74
2022/01/19 09:51:41;;;;;;;29.40;15.05;;;;;;;3.29;51.29;101286.97;7736504;32;39996;-74
2022/01/19 09:55:58;;;;;;;29.08;14.68;;;;;;;3.53;50.67;101280.44;7737344;32;38036;-74
2022/01/19 10:00:16;;;;;;;26.05;12.60;;;;;;;3.35;50.52;101270.87;7739899;32;37248;-72
2022/01/19 10:04:42;;;;;;;26.45;13.13;;;;;;;4.26;49.26;101248.81;7739610;32;38868;-75
2022/01/19 10:08:59;;;;;;;24.90;11.82;;;;;;;4.72;47.69;101228.59;7739831;32;39968;-75
2022/01/19 10:17:56;;;;;;;21.15;10.45;;;;;;;5.23;46.78;101216.63;7739641;32;38020;-75
2022/01/19 10:22:12;;;;;;;23.58;10.20;;;;;;;5.60;45.70;101214.44;7739616;32;39357;-74
2022/01/19 10:26:31;;;;;;;27.77;11.12;;;;;;;5.63;44.87;101205.91;7739519;32;40044;-75
2022/01/19 10:30:51;;;;;;;19.23;9.48;;;;;;;5.97;44.00;101187.91;7739610;32;38736;-74
2022/01/19 10:35:32;;;;;;;20.50;9.52;;;;;;;6.61;43.22;101191.81;7725947;32;37198;-75
2022/01/19 10:39:50;;;;;;;19.23;9.70;;;;;;;6.99;42.34;101174.00;7739528;32;39335;-74
2022/01/19 10:44:06;;;;;;;24.45;10.35;;;;;;;7.36;40.91;101169.66;7725594;32;39880;-73
2022/01/19 10:48:31;;;;;;;20.48;9.60;;;;;;;7.46;40.13;101159.16;7739116;32;38736;-74
2022/01/19 10:52:48;;;;;;;22.52;9.65;;;;;;;7.22;41.01;101139.06;7739304;32;37327;-74
2022/01/19 10:57:15;;;;;;;23.58;10.35;;;;;;;7.89;39.55;101131.31;7739256;32;39328;-75
2022/01/19 11:01:52;;;;;;;22.37;9.73;;;;;;;7.56;39.78;101119.88;7738886;32;40804;-74
2022/01/19 11:06:08;;;;;;;18.67;10.07;;;;;;;8.08;38.83;101112.34;7738709;32;37831;-74
2022/01/19 11:10:25;;;;;;;26.02;10.30;;;;;;;7.90;39.26;101096.84;7738478;32;37938;-74
2022/01/19 11:14:42;;;;;;;18.40;10.52;;;;;;;7.69;39.11;101098.03;7739050;32;39911;-74
2022/01/19 11:19:19;;;;;;;24.67;9.80;;;;;;;7.13;39.86;101086.94;7738340;32;40240;-74
2022/01/19 11:23:54;;;;;;;29.77;10.88;;;;;;;7.31;40.07;101066.38;7738795;32;38594;-74
2022/01/19 11:28:10;;;;;;;21.05;9.77;;;;;;;7.99;38.79;101064.81;7738762;32;37979;-74
2022/01/19 11:32:26;;;;;;;18.00;9.52;;;;;;;8.24;38.71;101045.75;7738760;32;40118;-75
2022/01/19 11:36:43;;;;;;;17.80;8.65;;;;;;;8.62;37.80;101039.28;7738578;32;40843;-75
2022/01/19 11:41:08;;;;;;;18.12;8.63;;;;;;;8.28;38.33;101036.91;7738648;32;38363;-75
2022/01/19 11:45:38;;;;;;;20.10;9.35;;;;;;;8.69;37.45;101028.31;7738549;32;37955;-74
2022/01/19 11:50:08;;;;;;;21.73;8.48;;;;;;;9.96;36.68;101002.66;7738599;32;40253;-75
2022/01/19 11:54:33;;;;;;;18.15;7.00;;;;;;;9.31;35.94;101020.75;7738554;32;39886;-75
2022/01/19 11:59:06;;;;;;;20.20;8.13;;;;;;;10.18;34.45;100999.34;7724808;32;37522;-74
2022/01/19 12:03:28;;;;;;;23.33;7.70;;;;;;;10.33;33.64;100991.50;7738242;32;37184;-73
2022/01/19 12:08:33;;;;;;;19.27;8.60;;;;;;;10.67;33.39;100986.19;7726773;32;39683;-75
2022/01/19 12:18:07;;;;;;;21.58;7.43;;;;;;;11.07;32.64;100975.22;7725651;32;38767;-75
2022/01/19 12:22:27;;;;;;;17.62;7.60;;;;;;;10.75;32.56;100960.44;7712902;32;38158;-73
2022/01/19 12:27:10;;;;;;;16.02;6.40;;;;;;;10.54;33.00;100970.94;7738250;32;40372;-75
2022/01/19 12:31:30;;;;;;;26.83;6.82;;;;;;;10.16;32.51;100961.44;7738100;32;40002;-75
2022/01/19 12:35:47;;;;;;;16.35;6.22;;;;;;;10.10;33.98;100959.66;7738001;32;37786;-75
2022/01/19 12:40:17;;;;;;;15.55;5.87;;;;;;;8.99;34.78;100950.28;7724209;32;36818;-76
2022/01/19 12:44:40;;;;;;;18.65;6.25;;;;;;;9.98;35.84;100942.50;7712566;32;39879;-76
2022/01/19 12:48:57;;;;;;;15.57;6.55;;;;;;;10.72;31.47;100929.00;7737877;32;39767;-74
2022/01/19 12:53:24;;;;;;;20.73;7.68;;;;;;;10.95;32.02;100913.56;7737697;32;38746;-74
2022/01/19 12:57:41;;;;;;;15.77;6.75;;;;;;;10.25;32.07;100901.91;7737899;32;36959;-74
2022/01/19 13:01:58;;;;;;;13.45;5.80;;;;;;;9.91;32.66;100901.78;7732098;32;39950;-71
2022/01/19 13:06:16;;;;;;;13.32;5.20;;;;;;;9.65;33.61;100897.69;7734921;32;40002;-75
2022/01/19 13:14:56;;;;;;;16.60;6.43;;;;;;;11.35;32.00;100872.47;7736977;32;37167;-75
2022/01/19 13:19:16;;;;;;;15.68;6.70;;;;;;;11.87;30.85;100860.34;7736878;32;39335;-76
2022/01/19 13:23:52;;;;;;;14.73;6.22;;;;;;;12.42;31.38;100852.22;7733757;32;40902;-76
2022/01/19 13:28:08;;;;;;;15.90;6.87;;;;;;;12.27;31.11;100855.62;7734765;32;38118;-75
2022/01/19 13:32:26;;;;;;;17.25;6.37;;;;;;;12.89;29.90;100829.66;7706600;32;36940;-77
2022/01/19 13:36:42;;;;;;;19.20;6.60;;;;;;;12.72;28.75;100841.56;7709750;32;40109;-75
2022/01/19 13:41:07;;;;;;;19.98;6.85;;;;;;;13.01;28.40;100827.56;7709553;32;41245;-77
2022/01/19 13:45:48;;;;;;;19.17;7.20;;;;;;;13.42;27.20;100824.28;7694864;32;37996;-73
2022/01/19 13:50:06;;;;;;;19.70;7.28;;;;;;;12.71;27.75;100828.97;7709764;32;37461;-78
2022/01/19 13:54:23;;;;;;;17.75;6.65;;;;;;;13.62;27.25;100815.34;7708653;32;40024;-76
2022/01/19 13:58:43;;;;;;;15.30;6.15;;;;;;;13.27;27.08;100822.25;7709596;32;40847;-77
2022/01/19 14:03:03;;;;;;;16.83;6.47;;;;;;;13.45;26.71;100816.37;7708618;32;38018;-76
2022/01/19 14:07:22;;;;;;;14.85;6.90;;;;;;;15.92;23.78;100800.78;7708917;32;36964;-76
2022/01/19 14:11:40;;;;;;;17.00;7.53;;;;;;;18.01;20.86;100790.88;7708921;32;39265;-76
2022/01/19 14:16:17;;;;;;;19.20;7.37;;;;;;;17.37;21.68;100790.28;7708180;32;40084;-77
2022/01/19 14:20:33;;;;;;;15.95;6.18;;;;;;;18.62;19.50;100777.22;7708975;32;36859;-77
2022/01/19 14:25:26;;;;;;;17.00;6.25;;;;;;;19.11;18.85;100764.78;7707814;32;37193;-78
2022/01/19 14:29:56;;;;;;;17.40;7.27;;;;;;;19.46;18.32;100765.22;7633839;32;39558;-77
2022/01/19 14:34:12;;;;;;;16.05;8.30;;;;;;;19.08;18.91;100748.81;7708324;32;39949;-77
2022/01/19 14:38:37;;;;;;;17.65;7.87;;;;;;;19.10;19.04;100745.75;7694281;32;38670;-78
2022/01/19 14:42:53;;;;;;;21.25;9.00;;;;;;;19.47;18.61;100741.97;7710266;32;37889;-78
2022/01/19 14:47:31;;;;;;;19.33;9.05;;;;;;;19.18;18.88;100746.97;7711772;32;39526;-77
2022/01/19 14:51:47;;;;;;;19.50;9.18;;;;;;;19.42;18.74;100742.06;7712397;32;39615;-77
2022/01/19 14:56:03;;;;;;;19.80;8.18;;;;;;;18.94;19.14;100748.81;7722233;32;37550;-76
2022/01/19 15:00:27;;;;;;;21.67;8.52;;;;;;;18.91;19.58;100732.03;7716972;32;37806;-76
2022/01/19 15:04:44;;;;;;;19.55;9.02;;;;;;;16.94;21.61;100737.03;7695573;32;38993;-76
2022/01/19 15:09:01;;;;;;;24.73;10.93;;;;;;;16.80;22.07;100737.69;7684927;32;39943;-75
2022/01/19 15:13:17;;;;;;;18.27;8.80;;;;;;;15.51;23.55;100734.16;7685232;32;37635;-76
2022/01/19 15:17:33;;;;;;;20.05;8.02;;;;;;;13.65;26.58;100749.06;7684891;32;37934;-75
2022/01/19 15:21:49;;;;;;;19.12;7.50;;;;;;;11.95;29.71;100747.88;7704719;32;38995;-76
2022/01/19 15:26:06;;;;;;;19.15;7.80;;;;;;;10.76;31.24;100733.78;7709535;32;40017;-76
2022/01/19 15:30:23;;;;;;;19.50;7.85;;;;;;;9.93;32.86;100736.19;7710021;32;38702;-74
2022/01/19 15:34:39;;;;;;;20.75;9.70;;;;;;;9.35;33.91;100725.28;7710510;32;36961;-73
2022/01/19 15:38:55;;;;;;;21.95;9.45;;;;;;;8.81;34.93;100728.22;7711260;32;39008;-74
2022/01/19 15:43:14;;;;;;;26.35;10.65;;;;;;;7.98;36.74;100718.25;7711578;32;39966;-74
2022/01/19 15:47:30;;;;;;;24.77;11.07;;;;;;;7.48;37.92;100709.34;7709799;32;37130;-73
2022/01/19 15:51:46;;;;;;;23.98;11.25;;;;;;;7.30;38.11;100723.75;7711301;32;37198;-74
2022/01/19 15:56:02;;;;;;;31.62;12.82;;;;;;;6.98;38.72;100725.78;7710616;32;40170;-74
2022/01/19 16:00:19;;;;;;;25.50;12.73;;;;;;;6.79;39.14;100726.84;7710851;32;40025;-74
2022/01/19 16:04:35;;;;;;;27.48;12.63;;;;;;;6.54;39.66;100720.41;7709841;32;37857;-74
2022/01/19 16:08:51;;;;;;;30.60;13.85;;;;;;;5.63;41.99;100722.47;7710874;32;37280;-74
2022/01/19 16:13:08;;;;;;;24.45;13.23;;;;;;;5.43;42.77;100721.72;7711444;32;40217;-73
2022/01/19 16:17:24;;;;;;;30.77;13.82;;;;;;;5.45;43.04;100704.25;7710836;32;39886;-73
2022/01/19 16:21:42;;;;;;;33.33;15.02;;;;;;;5.19;44.28;100705.22;7710710;32;37515;-72
2022/01/19 16:26:07;;;;;;;31.83;14.55;;;;;;;5.04;44.71;100704.63;7711226;32;36489;-74
2022/01/19 16:30:23;;;;;;;26.70;14.45;;;;;;;5.05;44.56;100692.75;7709516;32;39010;-73
2022/01/19 16:34:39;;;;;;;32.33;15.15;;;;;;;5.02;44.41;100685.09;7711432;32;40547;-73
2022/01/19 16:38:56;;;;;;;36.65;16.10;;;;;;;4.82;44.75;100675.16;7710379;32;38070;-73
2022/01/19 16:43:12;;;;;;;33.92;15.98;;;;;;;4.64;45.24;100688.50;7710366;32;37950;-72
2022/01/19 16:47:32;;;;;;;36.33;15.68;;;;;;;4.44;45.76;100678.56;7710980;32;39283;-73
2022/01/19 16:51:52;;;;;;;29.92;14.73;;;;;;;4.33;46.05;100673.81;7710233;32;40804;-73
2022/01/19 16:56:09;;;;;;;30.70;15.63;;;;;;;4.13;46.65;100668.41;7710715;32;38518;-73
2022/01/19 17:00:26;;;;;;;27.83;15.27;;;;;;;4.41;45.83;100657.37;7710161;32;37920;-73
2022/01/19 17:04:42;;;;;;;36.60;20.77;;;;;;;4.20;46.49;100663.03;7735745;32;39972;-73
2022/01/19 17:08:58;;;;;;;39.38;17.65;;;;;;;3.87;47.57;100653.06;7736668;32;39956;-73
2022/01/19 17:13:28;;;;;;;30.65;16.33;;;;;;;3.95;47.56;100658.25;7736536;32;37498;-73
2022/01/19 17:17:50;;;;;;;29.95;15.95;;;;;;;3.94;47.67;100651.19;7723922;32;36743;-72
2022/01/19 17:22:27;;;;;;;30.75;14.27;;;;;;;3.55;48.88;100650.09;7736844;32;39782;-74
2022/01/19 17:26:43;;;;;;;38.13;15.23;;;;;;;3.53;49.54;100641.38;7737032;32;39636;-73
2022/01/19 17:31:11;;;;;;;38.97;17.33;;;;;;;3.38;50.36;100639.69;7737273;32;39142;-73
2022/01/19 17:35:28;;;;;;;34.72;16.62;;;;;;;3.09;52.63;100629.25;7735921;32;38100;-74
2022/01/19 17:39:44;;;;;;;32.33;16.37;;;;;;;2.94;52.53;100638.31;7734576;32;39980;-74
2022/01/19 17:44:02;;;;;;;30.83;15.80;;;;;;;3.07;51.57;100632.16;7734312;32;40047;-73
2022/01/19 17:52:54;;;;;;;33.85;15.45;;;;;;;3.22;50.84;100640.06;7732897;32;37186;-73
2022/01/19 17:57:12;;;;;;;32.55;16.10;;;;;;;3.25;51.22;100639.66;7734166;32;40154;-74
2022/01/19 18:01:29;;;;;;;32.83;15.88;;;;;;;3.43;49.79;100641.75;7718412;32;39945;-74
2022/01/19 18:05:46;;;;;;;33.53;16.55;;;;;;;3.00;50.54;100642.03;7733683;32;38563;-73
2022/01/19 18:10:02;;;;;;;32.20;17.12;;;;;;;2.97;51.00;100635.22;7733801;32;38384;-71
2022/01/19 18:14:18;;;;;;;35.75;16.20;;;;;;;2.86;52.26;100625.00;7733816;32;40449;-73
2022/01/19 18:18:51;;;;;;;37.17;15.50;;;;;;;2.65;53.15;100619.72;7734757;32;40311;-74
2022/01/19 18:23:07;;;;;;;35.75;17.30;;;;;;;2.89;53.11;100619.22;7735657;32;38783;-73
2022/01/19 18:27:23;;;;;;;30.02;16.00;;;;;;;2.70;53.44;100625.34;7739657;32;37262;-73
2022/01/19 18:31:40;;;;;;;38.97;17.65;;;;;;;2.65;52.25;100617.03;7725776;32;40054;-73
2022/01/19 18:35:56;;;;;;;35.53;16.48;;;;;;;2.58;53.51;100611.62;7739438;32;40066;-72
2022/01/19 18:40:16;;;;;;;28.73;16.08;;;;;;;2.95;52.38;100604.09;7739532;32;37658;-73
2022/01/19 18:44:33;;;;;;;34.08;17.80;;;;;;;2.98;51.10;100601.88;7725931;32;37355;-74
2022/01/19 18:48:50;;;;;;;32.80;17.25;;;;;;;2.65;52.13;100590.13;7739402;32;40113;-74
2022/01/19 18:53:07;;;;;;;30.92;15.82;;;;;;;2.49;52.48;100581.34;7739242;32;40020;-74
2022/01/19 18:57:23;;;;;;;37.95;17.35;;;;;;;2.35;53.61;100582.31;7739256;32;37692;-74
2022/01/19 19:01:45;;;;;;;36.97;16.48;;;;;;;2.58;52.49;100590.91;7739093;32;36852;-73
2022/01/19 19:06:02;;;;;;;36.40;17.48;;;;;;;2.66;52.31;100589.06;7739015;32;39320;-72
2022/01/19 19:10:28;;;;;;;37.78;18.20;;;;;;;2.41;52.40;100579.63;7723846;32;40935;-72
2022/01/19 19:14:49;;;;;;;37.25;18.52;;;;;;;2.23;52.90;100563.19;7737858;32;38685;-76
2022/01/19 19:19:09;;;;;;;39.83;20.23;;;;;;;2.22;53.21;100554.28;7737969;32;36895;-75
2022/01/19 19:23:27;;;;;;;36.05;18.05;;;;;;;2.36;53.51;100551.66;7737719;32;39012;-75
2022/01/19 19:27:45;;;;;;;37.25;18.92;;;;;;;2.19;54.99;100537.69;7722931;32;40034;-75
2022/01/19 19:32:05;;;;;;;35.40;20.40;;;;;;;2.06;55.49;100533.91;7737498;32;37283;-72
2022/01/19 19:36:24;;;;;;;43.10;20.83;;;;;;;2.07;56.06;100529.38;7737611;32;37506;-73
2022/01/19 19:40:41;;;;;;;44.22;19.80;;;;;;;2.07;55.35;100526.69;7738192;32;39268;-75
2022/01/19 19:44:57;;;;;;;51.40;23.90;;;;;;;2.00;54.38;100512.34;7724740;32;39945;-73
2022/01/19 19:49:13;;;;;;;56.30;25.90;;;;;;;1.81;54.43;100498.59;7738527;32;38066;-75
2022/01/19 19:53:30;;;;;;;47.72;22.58;;;;;;;1.87;55.02;100503.16;7738631;32;37990;-75
2022/01/19 19:57:46;;;;;;;45.72;20.33;;;;;;;2.19;53.81;100490.12;7738526;32;39306;-74
2022/01/19 20:02:03;;;;;;;61.92;29.65;;;;;;;2.00;55.03;100485.44;7738289;32;41397;-76
2022/01/19 20:06:20;;;;;;;52.42;24.67;;;;;;;1.65;56.14;100478.19;7738302;32;38724;-74
2022/01/19 20:10:38;;;;;;;47.97;22.98;;;;;;;1.63;55.29;100482.13;7738399;32;37312;-75
2022/01/19 20:14:56;;;;;;;53.22;23.30;;;;;;;1.56;57.08;100487.44;7738670;32;39296;-75
2022/01/19 20:19:12;;;;;;;36.35;22.13;;;;;;;1.58;55.78;100480.00;7738183;32;40735;-75
2022/01/19 20:23:28;;;;;;;39.35;21.17;;;;;;;1.64;56.18;100470.38;7738187;32;38286;-74
2022/01/19 20:27:46;;;;;;;43.22;20.10;;;;;;;1.64;55.41;100457.75;7738227;32;37603;-73
2022/01/19 20:32:02;;;;;;;46.90;21.10;;;;;;;1.80;54.36;100455.78;7738115;32;39382;-72
2022/01/19 20:36:19;;;;;;;43.17;20.48;;;;;;;1.73;54.44;100446.84;7738042;32;39891;-74
2022/01/19 20:40:35;;;;;;;43.80;20.73;;;;;;;1.69;54.71;100447.22;7737547;32;38516;-73
2022/01/19 20:44:52;;;;;;;49.75;20.77;;;;;;;1.64;56.10;100440.78;7737953;32;37380;-74
2022/01/19 20:49:09;;;;;;;46.03;21.83;;;;;;;1.52;56.09;100450.41;7737899;32;40017;-71
2022/01/19 20:53:26;;;;;;;49.38;21.48;;;;;;;1.35;56.59;100448.03;7737814;32;39999;-74
2022/01/19 20:57:45;;;;;;;44.20;20.65;;;;;;;1.51;55.55;100436.16;7737609;32;37662;-74
2022/01/19 21:02:02;;;;;;;46.83;22.98;;;;;;;1.42;56.11;100430.09;7737669;32;37507;-71
2022/01/19 21:06:19;;;;;;;41.00;20.48;;;;;;;1.44;55.75;100419.97;7737487;32;39455;-73
2022/01/19 21:10:36;;;;;;;39.08;22.05;;;;;;;1.47;55.65;100411.53;7737308;32;39645;-73
2022/01/19 21:14:53;;;;;;;44.78;22.02;;;;;;;1.27;56.33;100408.69;7737079;32;37880;-71
2022/01/19 21:19:09;;;;;;;43.85;21.73;;;;;;;1.49;55.81;100404.09;7737426;32;37144;-73
2022/01/19 21:23:29;;;;;;;49.88;20.83;;;;;;;1.32;56.33;100397.38;7737410;32;39810;-73